sensor_id;sensor_type;location;lat;lon;timestamp;pressure;altitude;pressure_sealevel;temperature;humidity
75438;BME280;64015;49.392;15.582;2023-02-28T00:01:19;96626.19;;;-2.63;75.53
75438;BME280;64015;49.392;15.582;2023-02-28T00:03:45;96624.44;;;-2.78;77.13
75438;BME280;64015;49.392;15.582;2023-02-28T00:06:11;96624.78;;;-2.97;77.29
75438;BME280;64015;49.392;15.582;2023-02-28T00:08:37;96624.75;;;-3.06;78.32
75438;BME280;64015;49.392;15.582;2023-02-28T00:11:10;96621.03;;;-3.19;79.17
75438;BME280;64015;49.392;15.582;2023-02-28T00:13:38;96622.66;;;-3.18;79.17
75438;BME280;64015;49.392;15.582;2023-02-28T00:16:09;96617.97;;;-3.23;77.63
75438;BME280;64015;49.392;15.582;2023-02-28T00:18:36;96623.13;;;-3.31;78.64
75438;BME280;64015;49.392;15.582;2023-02-28T00:21:02;96622.97;;;-3.38;78.84
75438;BME280;64015;49.392;15.582;2023-02-28T00:23:28;96617.63;;;-3.52;78.39
75438;BME280;64015;49.392;15.582;2023-02-28T00:25:54;96626.63;;;-3.64;79.68
75438;BME280;64015;49.392;15.582;2023-02-28T00:28:20;96618.72;;;-3.71;80.45
75438;BME280;64015;49.392;15.582;2023-02-28T00:30:46;96627.22;;;-3.79;80.48
75438;BME280;64015;49.392;15.582;2023-02-28T00:33:11;96627.22;;;-3.79;79.54
75438;BME280;64015;49.392;15.582;2023-02-28T00:35:45;96622.72;;;-3.77;79.02
75438;BME280;64015;49.392;15.582;2023-02-28T00:38:13;96627.22;;;-3.79;78.92
75438;BME280;64015;49.392;15.582;2023-02-28T00:40:38;96619.72;;;-3.98;79.39
75438;BME280;64015;49.392;15.582;2023-02-28T00:43:04;96623.97;;;-3.89;78.84
75438;BME280;64015;49.392;15.582;2023-02-28T00:45:30;96618.22;;;-3.74;76.88
75438;BME280;64015;49.392;15.582;2023-02-28T00:47:56;96617.38;;;-3.91;78.92
75438;BME280;64015;49.392;15.582;2023-02-28T00:50:21;96615.72;;;-4.00;79.31
75438;BME280;64015;49.392;15.582;2023-02-28T00:52:48;96612.28;;;-4.17;79.90
75438;BME280;64015;49.392;15.582;2023-02-28T00:55:14;96612.59;;;-4.12;80.42
75438;BME280;64015;49.392;15.582;2023-02-28T00:57:40;96614.53;;;-4.14;79.94
75438;BME280;64015;49.392;15.582;2023-02-28T01:00:08;96607.44;;;-4.20;80.25
75438;BME280;64015;49.392;15.582;2023-02-28T01:02:34;96611.88;;;-4.30;80.82
75438;BME280;64015;49.392;15.582;2023-02-28T01:04:59;96607.41;;;-4.28;81.29
75438;BME280;64015;49.392;15.582;2023-02-28T01:07:25;96603.22;;;-4.29;80.64
75438;BME280;64015;49.392;15.582;2023-02-28T01:09:51;96608.19;;;-4.36;81.45
75438;BME280;64015;49.392;15.582;2023-02-28T01:12:16;96610.91;;;-4.37;81.74
75438;BME280;64015;49.392;15.582;2023-02-28T01:14:42;96604.81;;;-4.28;80.92
75438;BME280;64015;49.392;15.582;2023-02-28T01:17:09;96599.97;;;-4.31;81.34
75438;BME280;64015;49.392;15.582;2023-02-28T01:19:35;96600.44;;;-4.36;82.32
75438;BME280;64015;49.392;15.582;2023-02-28T01:22:02;96609.47;;;-4.32;82.05
75438;BME280;64015;49.392;15.582;2023-02-28T01:24:28;96602.22;;;-4.36;81.74
75438;BME280;64015;49.392;15.582;2023-02-28T01:26:54;96605.75;;;-4.37;81.65
75438;BME280;64015;49.392;15.582;2023-02-28T01:29:20;96595.75;;;-4.40;82.18
75438;BME280;64015;49.392;15.582;2023-02-28T01:31:45;96595.34;;;-4.54;82.84
75438;BME280;64015;49.392;15.582;2023-02-28T01:34:11;96607.44;;;-4.54;82.85
75438;BME280;64015;49.392;15.582;2023-02-28T01:36:38;96601.19;;;-4.43;82.33
75438;BME280;64015;49.392;15.582;2023-02-28T01:39:03;96600.19;;;-4.51;82.85
75438;BME280;64015;49.392;15.582;2023-02-28T01:41:31;96609.78;;;-4.61;83.16
75438;BME280;64015;49.392;15.582;2023-02-28T01:44:02;96598.19;;;-4.65;84.04
75438;BME280;64015;49.392;15.582;2023-02-28T01:46:30;96607.31;;;-4.70;84.05
75438;BME280;64015;49.392;15.582;2023-02-28T01:49:09;96600.41;;;-4.70;84.45
75438;BME280;64015;49.392;15.582;2023-02-28T01:51:48;96593.78;;;-4.72;84.57
75438;BME280;64015;49.392;15.582;2023-02-28T01:54:27;96599.13;;;-4.74;85.03
75438;BME280;64015;49.392;15.582;2023-02-28T01:57:01;96591.69;;;-4.77;84.84
75438;BME280;64015;49.392;15.582;2023-02-28T01:59:33;96591.34;;;-4.82;84.76
75438;BME280;64015;49.392;15.582;2023-02-28T02:02:01;96592.31;;;-4.83;84.35
75438;BME280;64015;49.392;15.582;2023-02-28T02:04:42;96589.72;;;-4.83;84.65
75438;BME280;64015;49.392;15.582;2023-02-28T02:07:10;96591.16;;;-4.80;84.72
75438;BME280;64015;49.392;15.582;2023-02-28T02:09:37;96580.03;;;-4.89;84.72
75438;BME280;64015;49.392;15.582;2023-02-28T02:12:15;96578.16;;;-4.79;83.92
75438;BME280;64015;49.392;15.582;2023-02-28T02:25:43;96578.47;;;-4.82;83.91
75438;BME280;64015;49.392;15.582;2023-02-28T02:36:42;96570.34;;;-4.95;83.51
75438;BME280;64015;49.392;15.582;2023-02-28T02:39:21;96566.31;;;-4.98;84.07
75438;BME280;64015;49.392;15.582;2023-02-28T02:41:58;96580.13;;;-4.99;83.79
75438;BME280;64015;49.392;15.582;2023-02-28T02:44:33;96569.34;;;-5.02;84.18
75438;BME280;64015;49.392;15.582;2023-02-28T02:47:09;96576.41;;;-5.04;83.69
75438;BME280;64015;49.392;15.582;2023-02-28T02:49:36;96574.44;;;-5.10;84.79
75438;BME280;64015;49.392;15.582;2023-02-28T02:52:08;96572.16;;;-5.13;84.14
75438;BME280;64015;49.392;15.582;2023-02-28T02:54:39;96568.72;;;-5.22;85.49
75438;BME280;64015;49.392;15.582;2023-02-28T02:57:09;96569.53;;;-5.21;85.86
75438;BME280;64015;49.392;15.582;2023-02-28T02:59:39;96564.97;;;-5.28;85.08
75438;BME280;64015;49.392;15.582;2023-02-28T03:02:08;96569.88;;;-5.16;84.14
75438;BME280;64015;49.392;15.582;2023-02-28T03:04:43;96571.84;;;-5.10;83.52
75438;BME280;64015;49.392;15.582;2023-02-28T03:07:11;96573.91;;;-5.14;83.50
75438;BME280;64015;49.392;15.582;2023-02-28T03:09:37;96574.53;;;-5.20;83.56
75438;BME280;64015;49.392;15.582;2023-02-28T03:12:03;96579.00;;;-5.22;84.03
75438;BME280;64015;49.392;15.582;2023-02-28T03:14:59;96583.34;;;-5.22;83.84
75438;BME280;64015;49.392;15.582;2023-02-28T03:20:14;96577.00;;;-5.28;83.31
75438;BME280;64015;49.392;15.582;2023-02-28T03:23:10;96579.09;;;-5.32;83.60
75438;BME280;64015;49.392;15.582;2023-02-28T03:31:22;96587.03;;;-5.43;83.79
75438;BME280;64015;49.392;15.582;2023-02-28T03:34:00;96579.97;;;-5.41;83.72
75438;BME280;64015;49.392;15.582;2023-02-28T03:36:36;96584.09;;;-5.48;84.63
75438;BME280;64015;49.392;15.582;2023-02-28T03:39:14;96589.25;;;-5.48;83.79
75438;BME280;64015;49.392;15.582;2023-02-28T03:44:30;96584.00;;;-5.56;83.76
75438;BME280;64015;49.392;15.582;2023-02-28T03:47:02;96585.56;;;-5.63;84.34
75438;BME280;64015;49.392;15.582;2023-02-28T03:49:33;96581.53;;;-5.66;84.49
75438;BME280;64015;49.392;15.582;2023-02-28T03:52:02;96592.22;;;-5.70;84.69
75438;BME280;64015;49.392;15.582;2023-02-28T03:54:40;96592.31;;;-5.80;85.69
75438;BME280;64015;49.392;15.582;2023-02-28T04:00:00;96587.91;;;-5.87;87.69
75438;BME280;64015;49.392;15.582;2023-02-28T04:02:32;96591.09;;;-5.93;88.66
75438;BME280;64015;49.392;15.582;2023-02-28T04:04:57;96598.25;;;-5.97;90.11
75438;BME280;64015;49.392;15.582;2023-02-28T04:07:24;96595.81;;;-5.98;89.95
75438;BME280;64015;49.392;15.582;2023-02-28T04:09:49;96592.59;;;-6.00;90.26
75438;BME280;64015;49.392;15.582;2023-02-28T04:12:15;96598.03;;;-6.04;90.35
75438;BME280;64015;49.392;15.582;2023-02-28T04:14:41;96592.63;;;-6.10;90.42
75438;BME280;64015;49.392;15.582;2023-02-28T04:17:06;96589.84;;;-6.17;90.63
75438;BME280;64015;49.392;15.582;2023-02-28T04:19:33;96600.69;;;-6.23;91.48
75438;BME280;64015;49.392;15.582;2023-02-28T04:21:59;96600.03;;;-6.25;91.49
75438;BME280;64015;49.392;15.582;2023-02-28T04:24:27;96592.22;;;-6.33;91.87
75438;BME280;64015;49.392;15.582;2023-02-28T04:26:54;96592.50;;;-6.36;91.75
75438;BME280;64015;49.392;15.582;2023-02-28T04:29:22;96597.41;;;-6.43;92.30
75438;BME280;64015;49.392;15.582;2023-02-28T04:31:49;96592.03;;;-6.49;92.67
75438;BME280;64015;49.392;15.582;2023-02-28T04:34:15;96594.75;;;-6.51;93.52
75438;BME280;64015;49.392;15.582;2023-02-28T04:36:42;96592.06;;;-6.59;93.59
75438;BME280;64015;49.392;15.582;2023-02-28T04:39:08;96595.06;;;-6.63;93.92
75438;BME280;64015;49.392;15.582;2023-02-28T04:41:35;96591.16;;;-6.67;94.79
75438;BME280;64015;49.392;15.582;2023-02-28T04:44:00;96591.56;;;-6.72;95.38
75438;BME280;64015;49.392;15.582;2023-02-28T04:46:26;96597.91;;;-6.76;95.55
75438;BME280;64015;49.392;15.582;2023-02-28T04:48:52;96600.47;;;-6.76;95.59
75438;BME280;64015;49.392;15.582;2023-02-28T04:51:20;96589.44;;;-6.76;95.71
75438;BME280;64015;49.392;15.582;2023-02-28T04:53:47;96595.78;;;-6.81;96.11
75438;BME280;64015;49.392;15.582;2023-02-28T04:56:16;96597.00;;;-6.85;95.73
75438;BME280;64015;49.392;15.582;2023-02-28T04:58:41;96599.19;;;-6.90;95.12
75438;BME280;64015;49.392;15.582;2023-02-28T05:01:34;96592.06;;;-6.96;94.82
75438;BME280;64015;49.392;15.582;2023-02-28T05:04:03;96595.97;;;-7.01;95.70
75438;BME280;64015;49.392;15.582;2023-02-28T05:06:31;96598.38;;;-7.00;95.50
75438;BME280;64015;49.392;15.582;2023-02-28T05:08:57;96597.84;;;-7.03;95.01
75438;BME280;64015;49.392;15.582;2023-02-28T05:11:28;96600.03;;;-7.08;96.02
75438;BME280;64015;49.392;15.582;2023-02-28T05:13:59;96600.28;;;-7.11;96.60
75438;BME280;64015;49.392;15.582;2023-02-28T05:16:24;96594.66;;;-7.15;96.89
75438;BME280;64015;49.392;15.582;2023-02-28T05:18:50;96601.41;;;-7.14;96.90
75438;BME280;64015;49.392;15.582;2023-02-28T05:23:49;96600.16;;;-7.20;97.41
75438;BME280;64015;49.392;15.582;2023-02-28T05:26:15;96596.00;;;-7.21;97.33
75438;BME280;64015;49.392;15.582;2023-02-28T05:28:41;96601.25;;;-7.22;97.92
75438;BME280;64015;49.392;15.582;2023-02-28T05:31:10;96595.84;;;-7.19;97.62
75438;BME280;64015;49.392;15.582;2023-02-28T05:33:36;96599.50;;;-7.22;97.58
75438;BME280;64015;49.392;15.582;2023-02-28T05:36:02;96602.47;;;-7.26;97.73
75438;BME280;64015;49.392;15.582;2023-02-28T05:38:28;96611.09;;;-7.27;97.95
75438;BME280;64015;49.392;15.582;2023-02-28T05:40:54;96610.56;;;-7.31;98.24
75438;BME280;64015;49.392;15.582;2023-02-28T05:43:19;96610.72;;;-7.32;97.94
75438;BME280;64015;49.392;15.582;2023-02-28T05:45:45;96611.66;;;-7.33;98.44
75438;BME280;64015;49.392;15.582;2023-02-28T05:48:10;96616.78;;;-7.33;99.03
75438;BME280;64015;49.392;15.582;2023-02-28T05:50:36;96617.06;;;-7.36;98.76
75438;BME280;64015;49.392;15.582;2023-02-28T05:53:03;96612.72;;;-7.36;98.77
75438;BME280;64015;49.392;15.582;2023-02-28T05:55:29;96615.84;;;-7.32;98.21
75438;BME280;64015;49.392;15.582;2023-02-28T05:57:54;96619.47;;;-7.35;98.51
75438;BME280;64015;49.392;15.582;2023-02-28T06:00:21;96623.53;;;-7.32;98.17
75438;BME280;64015;49.392;15.582;2023-02-28T06:02:47;96624.19;;;-7.30;98.09
75438;BME280;64015;49.392;15.582;2023-02-28T06:05:15;96627.28;;;-7.27;98.17
75438;BME280;64015;49.392;15.582;2023-02-28T06:07:41;96624.31;;;-7.22;97.84
75438;BME280;64015;49.392;15.582;2023-02-28T06:10:08;96627.56;;;-7.20;97.28
75438;BME280;64015;49.392;15.582;2023-02-28T06:12:35;96626.88;;;-7.12;98.02
75438;BME280;64015;49.392;15.582;2023-02-28T06:15:00;96633.22;;;-7.07;97.97
75438;BME280;64015;49.392;15.582;2023-02-28T06:17:26;96631.84;;;-7.01;96.99
75438;BME280;64015;49.392;15.582;2023-02-28T06:19:52;96637.91;;;-6.93;97.99
75438;BME280;64015;49.392;15.582;2023-02-28T06:22:17;96640.47;;;-6.93;97.55
75438;BME280;64015;49.392;15.582;2023-02-28T06:24:43;96640.59;;;-6.85;97.60
75438;BME280;64015;49.392;15.582;2023-02-28T06:27:09;96645.06;;;-6.77;97.30
75438;BME280;64015;49.392;15.582;2023-02-28T06:29:36;96653.81;;;-6.70;97.18
75438;BME280;64015;49.392;15.582;2023-02-28T06:32:05;96648.78;;;-6.62;96.76
75438;BME280;64015;49.392;15.582;2023-02-28T06:34:34;96652.13;;;-6.52;96.40
75438;BME280;64015;49.392;15.582;2023-02-28T06:37:00;96658.88;;;-6.41;95.77
75438;BME280;64015;49.392;15.582;2023-02-28T06:39:29;96656.28;;;-6.31;95.49
75438;BME280;64015;49.392;15.582;2023-02-28T06:41:54;96657.03;;;-6.21;93.86
75438;BME280;64015;49.392;15.582;2023-02-28T06:44:20;96656.66;;;-5.99;92.78
75438;BME280;64015;49.392;15.582;2023-02-28T06:46:46;96666.53;;;-5.94;92.37
75438;BME280;64015;49.392;15.582;2023-02-28T06:49:13;96660.66;;;-5.69;90.49
75438;BME280;64015;49.392;15.582;2023-02-28T06:51:43;96670.06;;;-5.60;90.56
75438;BME280;64015;49.392;15.582;2023-02-28T06:54:12;96662.97;;;-5.48;89.69
75438;BME280;64015;49.392;15.582;2023-02-28T06:56:38;96672.47;;;-5.31;88.83
75438;BME280;64015;49.392;15.582;2023-02-28T06:59:04;96672.75;;;-5.16;88.13
75438;BME280;64015;49.392;15.582;2023-02-28T07:01:30;96673.53;;;-4.98;86.88
75438;BME280;64015;49.392;15.582;2023-02-28T07:03:58;96672.28;;;-4.76;85.37
75438;BME280;64015;49.392;15.582;2023-02-28T07:06:24;96674.56;;;-4.73;84.64
75438;BME280;64015;49.392;15.582;2023-02-28T07:08:51;96669.03;;;-4.53;83.49
75438;BME280;64015;49.392;15.582;2023-02-28T07:11:21;96680.38;;;-4.45;83.51
75438;BME280;64015;49.392;15.582;2023-02-28T07:13:49;96678.19;;;-4.32;82.32
75438;BME280;64015;49.392;15.582;2023-02-28T07:16:16;96681.44;;;-4.30;82.28
75438;BME280;64015;49.392;15.582;2023-02-28T07:18:44;96680.50;;;-4.21;81.74
75438;BME280;64015;49.392;15.582;2023-02-28T07:21:10;96686.41;;;-4.03;81.21
75438;BME280;64015;49.392;15.582;2023-02-28T07:23:37;96687.78;;;-3.83;80.13
75438;BME280;64015;49.392;15.582;2023-02-28T07:26:04;96691.84;;;-3.72;79.79
75438;BME280;64015;49.392;15.582;2023-02-28T07:28:30;96696.22;;;-3.72;79.85
75438;BME280;64015;49.392;15.582;2023-02-28T07:30:55;96684.44;;;-3.67;79.01
75438;BME280;64015;49.392;15.582;2023-02-28T07:33:21;96692.44;;;-3.44;77.67
75438;BME280;64015;49.392;15.582;2023-02-28T07:35:49;96693.84;;;-3.50;78.58
75438;BME280;64015;49.392;15.582;2023-02-28T07:38:15;96694.53;;;-3.40;78.98
75438;BME280;64015;49.392;15.582;2023-02-28T07:40:41;96700.06;;;-3.26;78.12
75438;BME280;64015;49.392;15.582;2023-02-28T07:43:06;96703.94;;;-3.14;76.12
75438;BME280;64015;49.392;15.582;2023-02-28T07:45:32;96707.00;;;-3.03;76.57
75438;BME280;64015;49.392;15.582;2023-02-28T07:48:00;96698.81;;;-2.98;76.30
75438;BME280;64015;49.392;15.582;2023-02-28T07:50:26;96696.38;;;-2.83;75.34
75438;BME280;64015;49.392;15.582;2023-02-28T07:52:58;96698.66;;;-2.88;75.86
75438;BME280;64015;49.392;15.582;2023-02-28T07:55:24;96691.22;;;-2.75;74.37
75438;BME280;64015;49.392;15.582;2023-02-28T07:57:53;96695.25;;;-2.73;74.81
75438;BME280;64015;49.392;15.582;2023-02-28T08:00:19;96697.34;;;-2.68;75.22
75438;BME280;64015;49.392;15.582;2023-02-28T08:02:45;96699.31;;;-2.62;74.50
75438;BME280;64015;49.392;15.582;2023-02-28T08:05:10;96701.84;;;-2.38;74.82
75438;BME280;64015;49.392;15.582;2023-02-28T08:07:36;96699.59;;;-2.33;73.38
75438;BME280;64015;49.392;15.582;2023-02-28T08:10:02;96690.06;;;-2.32;73.89
75438;BME280;64015;49.392;15.582;2023-02-28T08:12:31;96693.44;;;-2.23;73.30
75438;BME280;64015;49.392;15.582;2023-02-28T08:15:00;96700.97;;;-1.98;72.62
75438;BME280;64015;49.392;15.582;2023-02-28T08:17:26;96697.44;;;-1.97;71.89
75438;BME280;64015;49.392;15.582;2023-02-28T08:19:52;96699.81;;;-1.87;72.37
75438;BME280;64015;49.392;15.582;2023-02-28T08:22:18;96701.41;;;-1.78;72.24
75438;BME280;64015;49.392;15.582;2023-02-28T08:24:43;96696.19;;;-1.70;71.86
75438;BME280;64015;49.392;15.582;2023-02-28T08:27:09;96695.53;;;-1.33;69.57
75438;BME280;64015;49.392;15.582;2023-02-28T08:29:38;96702.19;;;-1.38;69.60
75438;BME280;64015;49.392;15.582;2023-02-28T08:32:06;96702.34;;;-1.32;69.04
75438;BME280;64015;49.392;15.582;2023-02-28T08:34:31;96711.84;;;-1.24;69.90
75438;BME280;64015;49.392;15.582;2023-02-28T08:36:57;96713.63;;;-1.02;68.14
75438;BME280;64015;49.392;15.582;2023-02-28T08:39:23;96715.44;;;-1.02;68.06
75438;BME280;64015;49.392;15.582;2023-02-28T08:41:48;96703.31;;;-1.10;67.94
75438;BME280;64015;49.392;15.582;2023-02-28T08:44:15;96724.22;;;-1.11;68.29
75438;BME280;64015;49.392;15.582;2023-02-28T08:46:41;96719.44;;;-1.00;67.29
75438;BME280;64015;49.392;15.582;2023-02-28T08:49:06;96718.09;;;-0.88;66.96
75438;BME280;64015;49.392;15.582;2023-02-28T08:51:33;96720.72;;;-0.73;66.70
75438;BME280;64015;49.392;15.582;2023-02-28T08:53:59;96717.28;;;-0.65;65.95
75438;BME280;64015;49.392;15.582;2023-02-28T08:56:26;96721.59;;;-0.58;65.67
75438;BME280;64015;49.392;15.582;2023-02-28T08:58:55;96719.03;;;-0.43;65.08
75438;BME280;64015;49.392;15.582;2023-02-28T09:01:24;96716.53;;;-0.37;64.97
75438;BME280;64015;49.392;15.582;2023-02-28T09:03:51;96727.63;;;-0.43;64.65
75438;BME280;64015;49.392;15.582;2023-02-28T09:06:18;96725.59;;;-0.32;64.84
75438;BME280;64015;49.392;15.582;2023-02-28T09:08:44;96720.44;;;-0.18;64.23
75438;BME280;64015;49.392;15.582;2023-02-28T09:11:11;96723.75;;;-0.09;64.20
75438;BME280;64015;49.392;15.582;2023-02-28T09:13:37;96725.03;;;-0.05;63.43
75438;BME280;64015;49.392;15.582;2023-02-28T09:16:05;96720.13;;;0.00;64.04
75438;BME280;64015;49.392;15.582;2023-02-28T09:18:33;96727.72;;;0.16;63.17
75438;BME280;64015;49.392;15.582;2023-02-28T09:21:02;96729.09;;;0.27;62.52
75438;BME280;64015;49.392;15.582;2023-02-28T09:23:28;96732.47;;;0.27;62.66
75438;BME280;64015;49.392;15.582;2023-02-28T09:25:54;96728.44;;;0.40;62.18
75438;BME280;64015;49.392;15.582;2023-02-28T09:28:21;96721.00;;;0.51;61.75
75438;BME280;64015;49.392;15.582;2023-02-28T09:30:50;96723.66;;;0.72;62.00
75438;BME280;64015;49.392;15.582;2023-02-28T09:33:17;96722.41;;;0.83;59.93
75438;BME280;64015;49.392;15.582;2023-02-28T09:35:50;96731.75;;;0.99;60.89
75438;BME280;64015;49.392;15.582;2023-02-28T09:38:17;96732.28;;;1.09;59.78
75438;BME280;64015;49.392;15.582;2023-02-28T09:40:58;96733.97;;;1.38;59.25
75438;BME280;64015;49.392;15.582;2023-02-28T09:43:26;96729.06;;;1.49;58.15
75438;BME280;64015;49.392;15.582;2023-02-28T09:46:02;96737.75;;;1.57;57.70
75438;BME280;64015;49.392;15.582;2023-02-28T09:48:37;96733.06;;;1.73;57.82
75438;BME280;64015;49.392;15.582;2023-02-28T09:51:15;96739.16;;;1.87;57.38
75438;BME280;64015;49.392;15.582;2023-02-28T09:53:48;96733.59;;;1.90;56.46
75438;BME280;64015;49.392;15.582;2023-02-28T09:56:39;96738.56;;;2.41;55.50
75438;BME280;64015;49.392;15.582;2023-02-28T09:59:25;96732.66;;;2.67;54.99
75438;BME280;64015;49.392;15.582;2023-02-28T10:02:09;96738.53;;;2.82;54.01
75438;BME280;64015;49.392;15.582;2023-02-28T10:04:59;96736.81;;;3.02;53.12
75438;BME280;64015;49.392;15.582;2023-02-28T10:08:09;96734.56;;;2.92;53.06
75438;BME280;64015;49.392;15.582;2023-02-28T10:10:42;96737.56;;;2.89;53.42
75438;BME280;64015;49.392;15.582;2023-02-28T10:13:22;96732.66;;;3.21;52.42
75438;BME280;64015;49.392;15.582;2023-02-28T10:15:52;96734.69;;;3.32;52.66
75438;BME280;64015;49.392;15.582;2023-02-28T10:18:24;96738.34;;;4.03;50.67
75438;BME280;64015;49.392;15.582;2023-02-28T10:20:51;96722.44;;;4.44;49.29
75438;BME280;64015;49.392;15.582;2023-02-28T10:23:28;96718.78;;;5.03;47.86
75438;BME280;64015;49.392;15.582;2023-02-28T10:26:00;96717.66;;;5.87;45.73
75438;BME280;64015;49.392;15.582;2023-02-28T10:28:28;96711.66;;;6.11;44.10
75438;BME280;64015;49.392;15.582;2023-02-28T10:30:55;96706.94;;;5.95;44.46
75438;BME280;64015;49.392;15.582;2023-02-28T10:33:30;96716.09;;;5.54;45.08
75438;BME280;64015;49.392;15.582;2023-02-28T10:36:00;96708.16;;;5.36;46.04
75438;BME280;64015;49.392;15.582;2023-02-28T10:38:27;96702.28;;;5.41;45.13
75438;BME280;64015;49.392;15.582;2023-02-28T10:43:32;96707.84;;;5.19;46.45
75438;BME280;64015;49.392;15.582;2023-02-28T10:46:13;96708.22;;;4.85;46.08
75438;BME280;64015;49.392;15.582;2023-02-28T10:48:51;96698.03;;;4.64;47.08
75438;BME280;64015;49.392;15.582;2023-02-28T10:51:25;96700.50;;;4.52;47.13
75438;BME280;64015;49.392;15.582;2023-02-28T10:53:59;96708.50;;;4.64;47.44
75438;BME280;64015;49.392;15.582;2023-02-28T10:56:25;96712.50;;;5.17;47.37
75438;BME280;64015;49.392;15.582;2023-02-28T11:01:39;96714.41;;;7.67;41.49
75438;BME280;64015;49.392;15.582;2023-02-28T11:06:57;96707.31;;;9.53;37.51
75438;BME280;64015;49.392;15.582;2023-02-28T11:09:39;96700.56;;;9.90;36.58
75438;BME280;64015;49.392;15.582;2023-02-28T11:12:27;96698.19;;;10.61;34.91
75438;BME280;64015;49.392;15.582;2023-02-28T11:15:00;96693.78;;;10.50;34.18
75438;BME280;64015;49.392;15.582;2023-02-28T11:17:29;96702.69;;;9.60;35.61
75438;BME280;64015;49.392;15.582;2023-02-28T11:19:59;96703.75;;;8.90;36.78
75438;BME280;64015;49.392;15.582;2023-02-28T11:22:31;96701.28;;;8.72;37.60
75438;BME280;64015;49.392;15.582;2023-02-28T11:25:13;96687.88;;;8.34;38.62
75438;BME280;64015;49.392;15.582;2023-02-28T11:30:39;96692.06;;;8.11;39.45
75438;BME280;64015;49.392;15.582;2023-02-28T11:35:48;96685.69;;;10.01;35.73
75438;BME280;64015;49.392;15.582;2023-02-28T11:38:15;96688.19;;;10.63;34.00
75438;BME280;64015;49.392;15.582;2023-02-28T11:40:53;96681.47;;;10.77;33.15
75438;BME280;64015;49.392;15.582;2023-02-28T11:54:43;96668.88;;;8.83;36.86
75438;BME280;64015;49.392;15.582;2023-02-28T11:57:33;96665.22;;;8.84;37.91
75438;BME280;64015;49.392;15.582;2023-02-28T12:03:37;96667.63;;;7.88;39.47
75438;BME280;64015;49.392;15.582;2023-02-28T12:06:17;96669.53;;;7.27;41.05
75438;BME280;64015;49.392;15.582;2023-02-28T12:11:47;96667.69;;;7.16;41.22
75438;BME280;64015;49.392;15.582;2023-02-28T12:25:34;96657.16;;;11.45;33.28
75438;BME280;64015;49.392;15.582;2023-02-28T12:28:04;96653.19;;;13.26;30.22
75438;BME280;64015;49.392;15.582;2023-02-28T12:30:34;96646.25;;;14.57;28.25
75438;BME280;64015;49.392;15.582;2023-02-28T12:33:14;96652.72;;;15.49;26.47
75438;BME280;64015;49.392;15.582;2023-02-28T12:35:56;96652.03;;;16.07;25.34
75438;BME280;64015;49.392;15.582;2023-02-28T12:38:26;96644.56;;;16.37;24.36
75438;BME280;64015;49.392;15.582;2023-02-28T12:43:28;96638.06;;;17.34;23.41
75438;BME280;64015;49.392;15.582;2023-02-28T12:46:00;96639.63;;;17.91;22.62
75438;BME280;64015;49.392;15.582;2023-02-28T12:48:37;96636.88;;;18.42;22.95
75438;BME280;64015;49.392;15.582;2023-02-28T12:51:06;96630.88;;;18.04;22.63
75438;BME280;64015;49.392;15.582;2023-02-28T12:54:02;96614.56;;;16.51;24.12
75438;BME280;64015;49.392;15.582;2023-02-28T12:56:39;96626.72;;;14.17;27.42
75438;BME280;64015;49.392;15.582;2023-02-28T13:10:15;96618.47;;;14.24;27.66
75438;BME280;64015;49.392;15.582;2023-02-28T13:12:50;96613.31;;;15.17;26.96
75438;BME280;64015;49.392;15.582;2023-02-28T13:15:23;96620.50;;;15.17;26.24
75438;BME280;64015;49.392;15.582;2023-02-28T13:17:52;96621.66;;;14.16;27.33
75438;BME280;64015;49.392;15.582;2023-02-28T13:20:20;96626.75;;;13.77;28.00
75438;BME280;64015;49.392;15.582;2023-02-28T13:22:50;96619.31;;;13.59;28.50
75438;BME280;64015;49.392;15.582;2023-02-28T13:27:49;96624.81;;;15.08;26.06
75438;BME280;64015;49.392;15.582;2023-02-28T13:33:24;96622.09;;;16.72;24.84
75438;BME280;64015;49.392;15.582;2023-02-28T13:44:22;96616.09;;;17.61;21.97
75438;BME280;64015;49.392;15.582;2023-02-28T13:51:50;96618.16;;;18.15;22.12
75438;BME280;64015;49.392;15.582;2023-02-28T13:54:55;96616.50;;;18.33;21.85
75438;BME280;64015;49.392;15.582;2023-02-28T14:08:55;96608.00;;;16.91;23.15
75438;BME280;64015;49.392;15.582;2023-02-28T14:11:34;96603.03;;;16.36;23.97
75438;BME280;64015;49.392;15.582;2023-02-28T14:14:01;96609.59;;;17.99;22.61
75438;BME280;64015;49.392;15.582;2023-02-28T14:16:41;96608.66;;;17.01;23.37
75438;BME280;64015;49.392;15.582;2023-02-28T14:19:16;96598.47;;;16.66;23.44
75438;BME280;64015;49.392;15.582;2023-02-28T14:27:05;96605.91;;;15.48;25.11
75438;BME280;64015;49.392;15.582;2023-02-28T14:30:02;96598.38;;;15.94;24.61
75438;BME280;64015;49.392;15.582;2023-02-28T14:35:16;96594.84;;;15.75;24.49
75438;BME280;64015;49.392;15.582;2023-02-28T14:37:44;96590.22;;;16.15;24.62
75438;BME280;64015;49.392;15.582;2023-02-28T14:40:20;96598.91;;;15.28;25.17
75438;BME280;64015;49.392;15.582;2023-02-28T14:42:55;96589.13;;;15.92;24.82
75438;BME280;64015;49.392;15.582;2023-02-28T14:45:22;96591.69;;;16.02;24.26
75438;BME280;64015;49.392;15.582;2023-02-28T14:47:51;96593.06;;;15.65;25.00
75438;BME280;64015;49.392;15.582;2023-02-28T14:50:22;96591.06;;;15.47;25.38
75438;BME280;64015;49.392;15.582;2023-02-28T14:52:53;96596.41;;;15.42;25.60
75438;BME280;64015;49.392;15.582;2023-02-28T14:55:25;96592.59;;;15.14;26.23
75438;BME280;64015;49.392;15.582;2023-02-28T14:57:55;96593.47;;;15.05;25.91
75438;BME280;64015;49.392;15.582;2023-02-28T15:00:28;96596.69;;;14.42;26.53
75438;BME280;64015;49.392;15.582;2023-02-28T15:02:56;96586.84;;;14.43;26.38
75438;BME280;64015;49.392;15.582;2023-02-28T15:05:33;96587.81;;;14.67;26.51
75438;BME280;64015;49.392;15.582;2023-02-28T15:08:15;96588.44;;;14.34;26.82
75438;BME280;64015;49.392;15.582;2023-02-28T15:10:56;96593.19;;;14.52;26.41
75438;BME280;64015;49.392;15.582;2023-02-28T15:13:44;96591.94;;;14.14;27.23
75438;BME280;64015;49.392;15.582;2023-02-28T15:16:20;96583.25;;;13.22;27.61
75438;BME280;64015;49.392;15.582;2023-02-28T15:18:59;96590.34;;;12.96;28.51